sensor_id;sensor_type;location;lat;lon;timestamp;P1;durP1;ratioP1;P2;durP2;ratioP2
9413;SDS011;4746;35.664;139.738;2022-08-03T00:01:46;14.18;;;12.88;;
9413;SDS011;4746;35.664;139.738;2022-08-03T00:04:14;14.15;;;12.85;;
9413;SDS011;4746;35.664;139.738;2022-08-03T00:06:42;14.57;;;13.27;;
9413;SDS011;4746;35.664;139.738;2022-08-03T00:09:10;14.10;;;12.70;;
9413;SDS011;4746;35.664;139.738;2022-08-03T00:11:38;13.95;;;12.73;;
9413;SDS011;4746;35.664;139.738;2022-08-03T00:14:06;13.55;;;12.35;;
9413;SDS011;4746;35.664;139.738;2022-08-03T00:16:34;13.45;;;12.25;;
9413;SDS011;4746;35.664;139.738;2022-08-03T00:19:02;13.38;;;12.27;;
9413;SDS011;4746;35.664;139.738;2022-08-03T00:21:29;13.13;;;12.13;;
9413;SDS011;4746;35.664;139.738;2022-08-03T00:23:57;13.98;;;12.75;;
9413;SDS011;4746;35.664;139.738;2022-08-03T00:26:24;14.43;;;13.10;;
9413;SDS011;4746;35.664;139.738;2022-08-03T00:28:52;13.48;;;12.27;;
9413;SDS011;4746;35.664;139.738;2022-08-03T00:31:20;12.98;;;11.88;;
9413;SDS011;4746;35.664;139.738;2022-08-03T00:33:47;13.35;;;12.30;;
9413;SDS011;4746;35.664;139.738;2022-08-03T00:36:15;13.93;;;12.80;;
9413;SDS011;4746;35.664;139.738;2022-08-03T00:38:42;12.68;;;11.57;;
9413;SDS011;4746;35.664;139.738;2022-08-03T00:41:10;14.45;;;13.05;;
9413;SDS011;4746;35.664;139.738;2022-08-03T00:43:37;13.70;;;12.35;;
9413;SDS011;4746;35.664;139.738;2022-08-03T00:46:05;13.90;;;12.77;;
9413;SDS011;4746;35.664;139.738;2022-08-03T00:48:33;13.70;;;12.38;;
9413;SDS011;4746;35.664;139.738;2022-08-03T00:51:01;13.63;;;12.43;;
9413;SDS011;4746;35.664;139.738;2022-08-03T00:53:30;13.40;;;12.30;;
9413;SDS011;4746;35.664;139.738;2022-08-03T00:55:59;13.63;;;12.27;;
9413;SDS011;4746;35.664;139.738;2022-08-03T00:58:28;13.75;;;12.43;;
9413;SDS011;4746;35.664;139.738;2022-08-03T01:00:55;13.38;;;12.18;;
9413;SDS011;4746;35.664;139.738;2022-08-03T01:03:23;13.35;;;12.20;;
9413;SDS011;4746;35.664;139.738;2022-08-03T01:05:52;12.50;;;11.40;;
9413;SDS011;4746;35.664;139.738;2022-08-03T01:09:02;12.88;;;11.63;;
9413;SDS011;4746;35.664;139.738;2022-08-03T01:12:12;12.95;;;11.95;;
9413;SDS011;4746;35.664;139.738;2022-08-03T01:15:14;12.43;;;11.27;;
9413;SDS011;4746;35.664;139.738;2022-08-03T01:25:00;12.90;;;11.90;;
9413;SDS011;4746;35.664;139.738;2022-08-03T01:28:08;11.73;;;10.82;;
9413;SDS011;4746;35.664;139.738;2022-08-03T01:31:00;12.18;;;11.07;;
9413;SDS011;4746;35.664;139.738;2022-08-03T01:33:39;12.63;;;11.57;;
9413;SDS011;4746;35.664;139.738;2022-08-03T01:36:12;12.77;;;11.77;;
9413;SDS011;4746;35.664;139.738;2022-08-03T01:38:53;13.63;;;12.35;;
9413;SDS011;4746;35.664;139.738;2022-08-03T01:41:32;12.95;;;11.68;;
9413;SDS011;4746;35.664;139.738;2022-08-03T01:44:09;11.95;;;10.93;;
9413;SDS011;4746;35.664;139.738;2022-08-03T01:46:39;11.57;;;10.40;;
9413;SDS011;4746;35.664;139.738;2022-08-03T01:49:09;12.10;;;11.10;;
9413;SDS011;4746;35.664;139.738;2022-08-03T01:51:40;12.77;;;11.57;;
9413;SDS011;4746;35.664;139.738;2022-08-03T01:54:10;17.30;;;15.50;;
9413;SDS011;4746;35.664;139.738;2022-08-03T01:56:41;17.38;;;15.55;;
9413;SDS011;4746;35.664;139.738;2022-08-03T01:59:10;16.23;;;14.65;;
9413;SDS011;4746;35.664;139.738;2022-08-03T02:01:43;16.35;;;14.85;;
9413;SDS011;4746;35.664;139.738;2022-08-03T02:04:12;18.08;;;16.23;;
9413;SDS011;4746;35.664;139.738;2022-08-03T02:06:46;18.13;;;15.45;;
9413;SDS011;4746;35.664;139.738;2022-08-03T02:09:16;21.63;;;18.15;;
9413;SDS011;4746;35.664;139.738;2022-08-03T02:11:47;24.00;;;20.65;;
9413;SDS011;4746;35.664;139.738;2022-08-03T02:14:17;23.98;;;20.35;;
9413;SDS011;4746;35.664;139.738;2022-08-03T02:16:48;21.77;;;19.63;;
9413;SDS011;4746;35.664;139.738;2022-08-03T02:19:18;22.45;;;20.17;;
9413;SDS011;4746;35.664;139.738;2022-08-03T02:21:47;25.08;;;22.50;;
9413;SDS011;4746;35.664;139.738;2022-08-03T02:24:18;25.60;;;20.90;;
9413;SDS011;4746;35.664;139.738;2022-08-03T02:26:45;26.60;;;22.45;;
9413;SDS011;4746;35.664;139.738;2022-08-03T02:29:17;28.42;;;25.45;;
9413;SDS011;4746;35.664;139.738;2022-08-03T02:31:50;27.23;;;22.77;;
9413;SDS011;4746;35.664;139.738;2022-08-03T02:34:22;25.83;;;22.90;;
9413;SDS011;4746;35.664;139.738;2022-08-03T02:36:54;28.95;;;23.13;;
9413;SDS011;4746;35.664;139.738;2022-08-03T02:39:26;25.35;;;22.63;;
9413;SDS011;4746;35.664;139.738;2022-08-03T02:41:58;31.42;;;27.40;;
9413;SDS011;4746;35.664;139.738;2022-08-03T02:44:27;26.95;;;24.17;;
9413;SDS011;4746;35.664;139.738;2022-08-03T02:47:02;26.00;;;23.20;;
9413;SDS011;4746;35.664;139.738;2022-08-03T02:49:35;24.38;;;21.90;;
9413;SDS011;4746;35.664;139.738;2022-08-03T02:52:09;25.15;;;22.23;;
9413;SDS011;4746;35.664;139.738;2022-08-03T02:54:38;26.63;;;21.45;;
9413;SDS011;4746;35.664;139.738;2022-08-03T02:57:08;23.23;;;21.02;;
9413;SDS011;4746;35.664;139.738;2022-08-03T02:59:38;25.27;;;22.67;;
9413;SDS011;4746;35.664;139.738;2022-08-03T03:02:08;24.95;;;22.35;;
9413;SDS011;4746;35.664;139.738;2022-08-03T03:04:40;25.33;;;22.45;;
9413;SDS011;4746;35.664;139.738;2022-08-03T03:07:10;27.17;;;22.55;;
9413;SDS011;4746;35.664;139.738;2022-08-03T03:09:40;26.33;;;23.55;;
9413;SDS011;4746;35.664;139.738;2022-08-03T03:12:09;21.98;;;19.73;;
9413;SDS011;4746;35.664;139.738;2022-08-03T03:14:39;25.17;;;22.80;;
9413;SDS011;4746;35.664;139.738;2022-08-03T03:17:08;26.05;;;23.33;;
9413;SDS011;4746;35.664;139.738;2022-08-03T03:19:39;24.25;;;21.45;;
9413;SDS011;4746;35.664;139.738;2022-08-03T03:22:10;22.90;;;20.67;;
9413;SDS011;4746;35.664;139.738;2022-08-03T03:24:40;22.65;;;20.38;;
9413;SDS011;4746;35.664;139.738;2022-08-03T03:27:12;22.95;;;20.70;;
9413;SDS011;4746;35.664;139.738;2022-08-03T03:29:41;22.88;;;20.52;;
9413;SDS011;4746;35.664;139.738;2022-08-03T03:32:09;22.48;;;20.42;;
9413;SDS011;4746;35.664;139.738;2022-08-03T03:34:37;22.23;;;20.23;;
9413;SDS011;4746;35.664;139.738;2022-08-03T03:37:05;22.63;;;20.27;;
9413;SDS011;4746;35.664;139.738;2022-08-03T03:39:33;22.27;;;19.92;;
9413;SDS011;4746;35.664;139.738;2022-08-03T03:42:01;23.67;;;21.27;;
9413;SDS011;4746;35.664;139.738;2022-08-03T03:44:29;21.27;;;19.27;;
9413;SDS011;4746;35.664;139.738;2022-08-03T03:46:57;21.52;;;19.40;;
9413;SDS011;4746;35.664;139.738;2022-08-03T03:49:25;22.40;;;19.75;;
9413;SDS011;4746;35.664;139.738;2022-08-03T03:51:53;20.35;;;18.35;;
9413;SDS011;4746;35.664;139.738;2022-08-03T03:54:20;23.85;;;19.90;;
9413;SDS011;4746;35.664;139.738;2022-08-03T03:56:48;21.10;;;18.92;;
9413;SDS011;4746;35.664;139.738;2022-08-03T03:59:15;21.30;;;19.10;;
9413;SDS011;4746;35.664;139.738;2022-08-03T04:01:43;19.48;;;17.50;;
9413;SDS011;4746;35.664;139.738;2022-08-03T04:04:11;20.70;;;18.58;;
9413;SDS011;4746;35.664;139.738;2022-08-03T04:07:01;19.77;;;17.88;;
9413;SDS011;4746;35.664;139.738;2022-08-03T04:09:47;23.70;;;17.40;;
9413;SDS011;4746;35.664;139.738;2022-08-03T04:12:33;19.67;;;17.65;;
9413;SDS011;4746;35.664;139.738;2022-08-03T04:15:04;21.17;;;17.50;;
9413;SDS011;4746;35.664;139.738;2022-08-03T04:17:34;18.17;;;16.48;;
9413;SDS011;4746;35.664;139.738;2022-08-03T04:20:02;18.75;;;16.90;;
9413;SDS011;4746;35.664;139.738;2022-08-03T04:22:31;19.63;;;17.60;;
9413;SDS011;4746;35.664;139.738;2022-08-03T04:25:02;18.48;;;16.20;;
9413;SDS011;4746;35.664;139.738;2022-08-03T04:27:38;19.85;;;17.45;;
9413;SDS011;4746;35.664;139.738;2022-08-03T04:30:08;17.02;;;15.50;;
9413;SDS011;4746;35.664;139.738;2022-08-03T04:32:38;19.65;;;17.67;;
9413;SDS011;4746;35.664;139.738;2022-08-03T04:35:09;18.48;;;16.23;;
9413;SDS011;4746;35.664;139.738;2022-08-03T04:37:38;18.17;;;15.93;;
9413;SDS011;4746;35.664;139.738;2022-08-03T04:40:12;18.80;;;15.07;;
9413;SDS011;4746;35.664;139.738;2022-08-03T04:43:04;18.08;;;16.17;;
9413;SDS011;4746;35.664;139.738;2022-08-03T04:45:36;15.32;;;13.70;;
9413;SDS011;4746;35.664;139.738;2022-08-03T04:48:06;16.38;;;14.65;;
9413;SDS011;4746;35.664;139.738;2022-08-03T04:50:34;16.38;;;14.82;;
9413;SDS011;4746;35.664;139.738;2022-08-03T04:53:03;14.98;;;13.52;;
9413;SDS011;4746;35.664;139.738;2022-08-03T04:55:32;20.20;;;13.35;;
9413;SDS011;4746;35.664;139.738;2022-08-03T04:58:01;14.88;;;13.55;;
9413;SDS011;4746;35.664;139.738;2022-08-03T05:00:30;16.05;;;14.70;;
9413;SDS011;4746;35.664;139.738;2022-08-03T05:02:58;15.45;;;13.88;;
9413;SDS011;4746;35.664;139.738;2022-08-03T05:05:26;15.77;;;14.23;;
9413;SDS011;4746;35.664;139.738;2022-08-03T05:07:53;14.40;;;13.10;;
9413;SDS011;4746;35.664;139.738;2022-08-03T05:10:21;15.52;;;13.93;;
9413;SDS011;4746;35.664;139.738;2022-08-03T05:12:48;14.50;;;13.00;;
9413;SDS011;4746;35.664;139.738;2022-08-03T05:15:16;16.83;;;13.73;;
9413;SDS011;4746;35.664;139.738;2022-08-03T05:17:44;16.67;;;13.88;;
9413;SDS011;4746;35.664;139.738;2022-08-03T05:20:11;15.18;;;13.68;;
9413;SDS011;4746;35.664;139.738;2022-08-03T05:22:39;15.70;;;13.93;;
9413;SDS011;4746;35.664;139.738;2022-08-03T05:25:06;15.43;;;13.90;;
9413;SDS011;4746;35.664;139.738;2022-08-03T05:27:34;15.52;;;13.93;;
9413;SDS011;4746;35.664;139.738;2022-08-03T05:30:02;13.50;;;12.27;;
9413;SDS011;4746;35.664;139.738;2022-08-03T05:32:31;14.55;;;13.15;;
9413;SDS011;4746;35.664;139.738;2022-08-03T05:34:58;14.40;;;13.05;;
9413;SDS011;4746;35.664;139.738;2022-08-03T05:37:26;19.85;;;13.77;;
9413;SDS011;4746;35.664;139.738;2022-08-03T05:39:53;15.05;;;13.45;;
9413;SDS011;4746;35.664;139.738;2022-08-03T05:42:21;13.68;;;12.48;;
9413;SDS011;4746;35.664;139.738;2022-08-03T05:44:48;14.80;;;13.40;;
9413;SDS011;4746;35.664;139.738;2022-08-03T05:47:16;14.63;;;13.23;;
9413;SDS011;4746;35.664;139.738;2022-08-03T05:49:44;14.68;;;13.23;;
9413;SDS011;4746;35.664;139.738;2022-08-03T05:52:11;16.25;;;14.73;;
9413;SDS011;4746;35.664;139.738;2022-08-03T05:54:39;17.02;;;14.40;;
9413;SDS011;4746;35.664;139.738;2022-08-03T05:57:06;15.90;;;14.32;;
9413;SDS011;4746;35.664;139.738;2022-08-03T05:59:36;15.27;;;14.00;;
9413;SDS011;4746;35.664;139.738;2022-08-03T06:02:04;16.52;;;14.82;;
9413;SDS011;4746;35.664;139.738;2022-08-03T06:04:31;10.77;;;9.75;;
9413;SDS011;4746;35.664;139.738;2022-08-03T06:06:59;13.30;;;12.10;;
9413;SDS011;4746;35.664;139.738;2022-08-03T06:09:26;12.27;;;11.07;;
9413;SDS011;4746;35.664;139.738;2022-08-03T06:11:54;11.27;;;10.30;;
9413;SDS011;4746;35.664;139.738;2022-08-03T06:14:23;10.40;;;9.50;;
9413;SDS011;4746;35.664;139.738;2022-08-03T06:16:50;9.52;;;8.75;;
9413;SDS011;4746;35.664;139.738;2022-08-03T06:19:18;10.07;;;9.18;;
9413;SDS011;4746;35.664;139.738;2022-08-03T06:21:45;9.02;;;8.32;;
9413;SDS011;4746;35.664;139.738;2022-08-03T06:24:13;9.02;;;8.35;;
9413;SDS011;4746;35.664;139.738;2022-08-03T06:26:41;10.85;;;9.75;;
9413;SDS011;4746;35.664;139.738;2022-08-03T06:29:08;10.00;;;9.05;;
9413;SDS011;4746;35.664;139.738;2022-08-03T06:31:36;9.75;;;8.98;;
9413;SDS011;4746;35.664;139.738;2022-08-03T06:34:03;10.07;;;9.18;;
9413;SDS011;4746;35.664;139.738;2022-08-03T06:36:31;11.30;;;10.27;;
9413;SDS011;4746;35.664;139.738;2022-08-03T06:38:59;12.27;;;10.77;;
9413;SDS011;4746;35.664;139.738;2022-08-03T06:41:27;11.95;;;10.75;;
9413;SDS011;4746;35.664;139.738;2022-08-03T06:43:54;12.07;;;11.02;;
9413;SDS011;4746;35.664;139.738;2022-08-03T06:46:22;11.70;;;10.68;;
9413;SDS011;4746;35.664;139.738;2022-08-03T06:48:50;12.20;;;11.10;;
9413;SDS011;4746;35.664;139.738;2022-08-03T06:51:18;13.38;;;11.68;;
9413;SDS011;4746;35.664;139.738;2022-08-03T06:53:45;13.45;;;11.38;;
9413;SDS011;4746;35.664;139.738;2022-08-03T06:56:13;12.52;;;11.23;;
9413;SDS011;4746;35.664;139.738;2022-08-03T06:58:40;13.95;;;12.32;;
9413;SDS011;4746;35.664;139.738;2022-08-03T07:01:08;12.50;;;11.32;;
9413;SDS011;4746;35.664;139.738;2022-08-03T07:03:35;17.52;;;14.80;;
9413;SDS011;4746;35.664;139.738;2022-08-03T07:06:05;13.77;;;11.48;;
9413;SDS011;4746;35.664;139.738;2022-08-03T07:08:32;13.15;;;11.90;;
9413;SDS011;4746;35.664;139.738;2022-08-03T07:11:00;15.05;;;11.30;;
9413;SDS011;4746;35.664;139.738;2022-08-03T07:13:28;12.50;;;10.98;;
9413;SDS011;4746;35.664;139.738;2022-08-03T07:15:58;13.93;;;12.50;;
9413;SDS011;4746;35.664;139.738;2022-08-03T07:18:26;15.77;;;12.40;;
9413;SDS011;4746;35.664;139.738;2022-08-03T07:20:53;15.52;;;13.18;;
9413;SDS011;4746;35.664;139.738;2022-08-03T07:23:22;14.00;;;12.38;;
9413;SDS011;4746;35.664;139.738;2022-08-03T07:25:49;15.63;;;13.00;;
9413;SDS011;4746;35.664;139.738;2022-08-03T07:28:17;15.45;;;11.90;;
9413;SDS011;4746;35.664;139.738;2022-08-03T07:30:45;14.27;;;12.57;;
9413;SDS011;4746;35.664;139.738;2022-08-03T07:33:13;15.93;;;13.57;;
9413;SDS011;4746;35.664;139.738;2022-08-03T07:35:40;17.45;;;14.60;;
9413;SDS011;4746;35.664;139.738;2022-08-03T07:38:08;14.98;;;13.43;;
9413;SDS011;4746;35.664;139.738;2022-08-03T07:40:36;16.60;;;12.20;;
9413;SDS011;4746;35.664;139.738;2022-08-03T07:43:03;15.73;;;12.43;;
9413;SDS011;4746;35.664;139.738;2022-08-03T07:45:31;18.88;;;13.93;;
9413;SDS011;4746;35.664;139.738;2022-08-03T07:47:58;17.50;;;13.85;;
9413;SDS011;4746;35.664;139.738;2022-08-03T07:50:26;15.10;;;13.18;;
9413;SDS011;4746;35.664;139.738;2022-08-03T07:52:54;15.95;;;13.10;;
9413;SDS011;4746;35.664;139.738;2022-08-03T07:55:24;14.63;;;12.73;;
9413;SDS011;4746;35.664;139.738;2022-08-03T08:00:34;17.52;;;12.00;;
9413;SDS011;4746;35.664;139.738;2022-08-03T08:03:02;13.75;;;11.05;;
9413;SDS011;4746;35.664;139.738;2022-08-03T08:05:30;13.55;;;11.23;;
9413;SDS011;4746;35.664;139.738;2022-08-03T08:07:58;12.18;;;10.98;;
9413;SDS011;4746;35.664;139.738;2022-08-03T08:10:27;14.50;;;11.50;;
9413;SDS011;4746;35.664;139.738;2022-08-03T08:12:58;12.60;;;11.43;;
9413;SDS011;4746;35.664;139.738;2022-08-03T08:15:26;16.70;;;11.82;;
9413;SDS011;4746;35.664;139.738;2022-08-03T08:17:55;16.90;;;12.25;;
9413;SDS011;4746;35.664;139.738;2022-08-03T08:20:26;13.65;;;12.25;;
9413;SDS011;4746;35.664;139.738;2022-08-03T08:22:58;14.13;;;12.52;;
9413;SDS011;4746;35.664;139.738;2022-08-03T08:25:29;17.55;;;12.43;;
9413;SDS011;4746;35.664;139.738;2022-08-03T08:27:58;15.55;;;13.40;;
9413;SDS011;4746;35.664;139.738;2022-08-03T08:30:28;14.73;;;12.07;;
9413;SDS011;4746;35.664;139.738;2022-08-03T08:32:57;15.20;;;13.50;;
9413;SDS011;4746;35.664;139.738;2022-08-03T08:35:27;23.75;;;13.98;;
9413;SDS011;4746;35.664;139.738;2022-08-03T08:37:55;21.45;;;14.90;;
9413;SDS011;4746;35.664;139.738;2022-08-03T08:40:25;19.33;;;13.80;;
9413;SDS011;4746;35.664;139.738;2022-08-03T08:42:53;19.80;;;13.63;;
9413;SDS011;4746;35.664;139.738;2022-08-03T08:45:21;17.48;;;13.10;;
9413;SDS011;4746;35.664;139.738;2022-08-03T08:47:49;17.77;;;13.70;;
9413;SDS011;4746;35.664;139.738;2022-08-03T08:50:20;17.10;;;13.55;;
9413;SDS011;4746;35.664;139.738;2022-08-03T08:52:48;21.88;;;14.07;;
9413;SDS011;4746;35.664;139.738;2022-08-03T08:55:20;17.63;;;13.65;;
9413;SDS011;4746;35.664;139.738;2022-08-03T08:57:51;19.73;;;13.82;;
9413;SDS011;4746;35.664;139.738;2022-08-03T09:00:34;18.60;;;12.68;;
9413;SDS011;4746;35.664;139.738;2022-08-03T09:03:02;23.83;;;14.35;;
9413;SDS011;4746;35.664;139.738;2022-08-03T09:05:29;18.13;;;13.35;;
9413;SDS011;4746;35.664;139.738;2022-08-03T09:07:57;19.88;;;14.35;;
9413;SDS011;4746;35.664;139.738;2022-08-03T09:10:25;20.25;;;13.63;;
9413;SDS011;4746;35.664;139.738;2022-08-03T09:12:55;16.75;;;13.95;;
9413;SDS011;4746;35.664;139.738;2022-08-03T09:15:24;21.58;;;14.80;;
9413;SDS011;4746;35.664;139.738;2022-08-03T09:18:01;20.88;;;14.65;;
9413;SDS011;4746;35.664;139.738;2022-08-03T09:20:33;21.77;;;16.83;;
9413;SDS011;4746;35.664;139.738;2022-08-03T09:23:04;22.63;;;17.17;;
9413;SDS011;4746;35.664;139.738;2022-08-03T09:25:41;25.20;;;18.17;;
9413;SDS011;4746;35.664;139.738;2022-08-03T09:28:11;25.95;;;17.58;;
9413;SDS011;4746;35.664;139.738;2022-08-03T09:30:42;14.05;;;12.63;;
9413;SDS011;4746;35.664;139.738;2022-08-03T09:33:22;12.88;;;11.57;;
9413;SDS011;4746;35.664;139.738;2022-08-03T09:35:50;11.68;;;10.57;;
9413;SDS011;4746;35.664;139.738;2022-08-03T09:38:24;11.48;;;10.35;;
9413;SDS011;4746;35.664;139.738;2022-08-03T09:40:52;12.88;;;10.35;;
9413;SDS011;4746;35.664;139.738;2022-08-03T09:43:21;11.50;;;10.60;;
9413;SDS011;4746;35.664;139.738;2022-08-03T09:45:51;10.43;;;9.43;;
9413;SDS011;4746;35.664;139.738;2022-08-03T09:48:30;11.35;;;10.15;;
9413;SDS011;4746;35.664;139.738;2022-08-03T09:51:01;13.18;;;10.32;;
9413;SDS011;4746;35.664;139.738;2022-08-03T09:53:30;10.32;;;9.23;;
9413;SDS011;4746;35.664;139.738;2022-08-03T09:56:08;10.35;;;9.40;;
9413;SDS011;4746;35.664;139.738;2022-08-03T09:58:46;10.23;;;8.63;;
9413;SDS011;4746;35.664;139.738;2022-08-03T10:01:15;10.07;;;9.07;;
9413;SDS011;4746;35.664;139.738;2022-08-03T10:03:43;11.90;;;9.50;;
9413;SDS011;4746;35.664;139.738;2022-08-03T10:06:24;10.65;;;9.55;;
9413;SDS011;4746;35.664;139.738;2022-08-03T10:09:05;9.90;;;8.70;;
9413;SDS011;4746;35.664;139.738;2022-08-03T10:11:39;10.20;;;9.07;;
9413;SDS011;4746;35.664;139.738;2022-08-03T10:14:09;9.77;;;8.75;;
9413;SDS011;4746;35.664;139.738;2022-08-03T10:16:44;13.20;;;9.98;;
9413;SDS011;4746;35.664;139.738;2022-08-03T10:19:13;11.52;;;9.85;;
9413;SDS011;4746;35.664;139.738;2022-08-03T10:21:45;9.90;;;8.68;;
9413;SDS011;4746;35.664;139.738;2022-08-03T10:24:23;10.30;;;8.82;;
9413;SDS011;4746;35.664;139.738;2022-08-03T10:26:58;11.18;;;9.50;;
9413;SDS011;4746;35.664;139.738;2022-08-03T10:29:38;11.45;;;9.98;;
9413;SDS011;4746;35.664;139.738;2022-08-03T10:32:17;15.68;;;12.85;;
9413;SDS011;4746;35.664;139.738;2022-08-03T10:34:58;19.73;;;13.50;;
9413;SDS011;4746;35.664;139.738;2022-08-03T10:37:43;15.27;;;12.95;;
9413;SDS011;4746;35.664;139.738;2022-08-03T10:40:26;15.05;;;12.00;;
9413;SDS011;4746;35.664;139.738;2022-08-03T10:42:58;15.77;;;12.02;;
9413;SDS011;4746;35.664;139.738;2022-08-03T10:45:40;11.93;;;10.35;;
9413;SDS011;4746;35.664;139.738;2022-08-03T10:48:10;14.85;;;10.80;;
9413;SDS011;4746;35.664;139.738;2022-08-03T10:50:38;12.82;;;11.55;;
9413;SDS011;4746;35.664;139.738;2022-08-03T10:53:08;15.23;;;12.52;;
9413;SDS011;4746;35.664;139.738;2022-08-03T10:55:37;14.75;;;11.52;;
9413;SDS011;4746;35.664;139.738;2022-08-03T11:01:10;14.90;;;12.88;;
9413;SDS011;4746;35.664;139.738;2022-08-03T11:06:22;12.32;;;11.02;;
9413;SDS011;4746;35.664;139.738;2022-08-03T11:11:41;11.00;;;9.65;;
9413;SDS011;4746;35.664;139.738;2022-08-03T11:14:16;10.63;;;9.00;;
9413;SDS011;4746;35.664;139.738;2022-08-03T11:16:49;11.93;;;9.07;;
9413;SDS011;4746;35.664;139.738;2022-08-03T11:19:46;10.98;;;9.88;;
9413;SDS011;4746;35.664;139.738;2022-08-03T11:22:17;11.40;;;9.88;;
9413;SDS011;4746;35.664;139.738;2022-08-03T11:27:21;10.05;;;9.15;;
9413;SDS011;4746;35.664;139.738;2022-08-03T11:35:12;18.27;;;14.25;;
9413;SDS011;4746;35.664;139.738;2022-08-03T11:46:09;18.90;;;14.02;;
9413;SDS011;4746;35.664;139.738;2022-08-03T11:48:43;15.70;;;12.85;;
9413;SDS011;4746;35.664;139.738;2022-08-03T11:51:20;19.85;;;14.43;;
9413;SDS011;4746;35.664;139.738;2022-08-03T11:54:00;18.65;;;13.85;;
9413;SDS011;4746;35.664;139.738;2022-08-03T11:56:43;15.07;;;13.60;;
9413;SDS011;4746;35.664;139.738;2022-08-03T11:59:14;18.00;;;13.90;;
9413;SDS011;4746;35.664;139.738;2022-08-03T12:01:42;16.27;;;14.10;;
9413;SDS011;4746;35.664;139.738;2022-08-03T12:04:11;16.02;;;13.82;;
9413;SDS011;4746;35.664;139.738;2022-08-03T12:06:40;15.23;;;12.98;;
9413;SDS011;4746;35.664;139.738;2022-08-03T12:09:23;13.32;;;11.80;;
9413;SDS011;4746;35.664;139.738;2022-08-03T12:11:51;13.40;;;11.75;;
9413;SDS011;4746;35.664;139.738;2022-08-03T12:14:19;15.20;;;12.63;;
9413;SDS011;4746;35.664;139.738;2022-08-03T12:16:47;12.27;;;10.98;;
9413;SDS011;4746;35.664;139.738;2022-08-03T12:19:15;12.57;;;11.13;;
9413;SDS011;4746;35.664;139.738;2022-08-03T12:21:49;16.08;;;12.13;;
9413;SDS011;4746;35.664;139.738;2022-08-03T12:24:16;13.60;;;10.85;;
9413;SDS011;4746;35.664;139.738;2022-08-03T12:26:49;14.25;;;10.75;;
9413;SDS011;4746;35.664;139.738;2022-08-03T12:29:17;13.80;;;11.80;;
9413;SDS011;4746;35.664;139.738;2022-08-03T12:31:50;12.93;;;10.93;;
9413;SDS011;4746;35.664;139.738;2022-08-03T12:34:17;11.18;;;10.13;;
9413;SDS011;4746;35.664;139.738;2022-08-03T12:36:52;12.65;;;10.50;;
9413;SDS011;4746;35.664;139.738;2022-08-03T12:39:25;14.23;;;10.63;;
9413;SDS011;4746;35.664;139.738;2022-08-03T12:41:54;13.63;;;10.85;;
9413;SDS011;4746;35.664;139.738;2022-08-03T12:44:30;12.18;;;10.73;;
9413;SDS011;4746;35.664;139.738;2022-08-03T12:47:00;12.02;;;9.77;;
9413;SDS011;4746;35.664;139.738;2022-08-03T12:52:35;12.98;;;11.63;;
9413;SDS011;4746;35.664;139.738;2022-08-03T12:55:17;11.32;;;10.15;;
9413;SDS011;4746;35.664;139.738;2022-08-03T12:57:47;15.18;;;11.30;;
9413;SDS011;4746;35.664;139.738;2022-08-03T13:00:18;12.48;;;10.95;;
9413;SDS011;4746;35.664;139.738;2022-08-03T13:02:53;11.95;;;10.52;;
9413;SDS011;4746;35.664;139.738;2022-08-03T13:05:30;13.18;;;10.75;;
9413;SDS011;4746;35.664;139.738;2022-08-03T13:08:21;12.10;;;10.82;;
9413;SDS011;4746;35.664;139.738;2022-08-03T13:10:51;11.30;;;10.20;;
9413;SDS011;4746;35.664;139.738;2022-08-03T13:13:36;11.45;;;9.65;;
9413;SDS011;4746;35.664;139.738;2022-08-03T13:16:04;10.90;;;9.80;;
9413;SDS011;4746;35.664;139.738;2022-08-03T13:18:31;11.63;;;10.55;;
9413;SDS011;4746;35.664;139.738;2022-08-03T13:20:59;13.00;;;10.57;;
9413;SDS011;4746;35.664;139.738;2022-08-03T13:23:26;11.85;;;10.60;;
9413;SDS011;4746;35.664;139.738;2022-08-03T13:25:54;11.88;;;10.65;;
9413;SDS011;4746;35.664;139.738;2022-08-03T13:28:22;16.25;;;11.43;;
9413;SDS011;4746;35.664;139.738;2022-08-03T13:30:49;14.02;;;12.57;;
9413;SDS011;4746;35.664;139.738;2022-08-03T13:33:19;13.45;;;11.23;;
9413;SDS011;4746;35.664;139.738;2022-08-03T13:35:46;13.07;;;11.85;;
9413;SDS011;4746;35.664;139.738;2022-08-03T13:38:14;13.90;;;12.55;;
9413;SDS011;4746;35.664;139.738;2022-08-03T13:40:41;14.77;;;13.27;;
9413;SDS011;4746;35.664;139.738;2022-08-03T13:43:09;16.13;;;14.45;;
9413;SDS011;4746;35.664;139.738;2022-08-03T13:45:37;16.65;;;13.57;;
9413;SDS011;4746;35.664;139.738;2022-08-03T13:48:04;15.00;;;13.40;;
9413;SDS011;4746;35.664;139.738;2022-08-03T13:50:32;15.43;;;14.02;;
9413;SDS011;4746;35.664;139.738;2022-08-03T13:53:00;14.75;;;13.15;;
9413;SDS011;4746;35.664;139.738;2022-08-03T13:55:27;15.00;;;13.38;;
9413;SDS011;4746;35.664;139.738;2022-08-03T13:57:55;15.25;;;13.95;;
9413;SDS011;4746;35.664;139.738;2022-08-03T14:00:22;14.55;;;13.25;;
9413;SDS011;4746;35.664;139.738;2022-08-03T14:02:50;13.93;;;12.55;;
9413;SDS011;4746;35.664;139.738;2022-08-03T14:05:18;14.02;;;12.73;;
9413;SDS011;4746;35.664;139.738;2022-08-03T14:07:46;12.40;;;11.30;;
9413;SDS011;4746;35.664;139.738;2022-08-03T14:10:13;12.57;;;11.40;;
9413;SDS011;4746;35.664;139.738;2022-08-03T14:12:42;12.70;;;11.45;;
9413;SDS011;4746;35.664;139.738;2022-08-03T14:15:09;13.25;;;11.10;;
9413;SDS011;4746;35.664;139.738;2022-08-03T14:17:37;10.85;;;9.95;;
9413;SDS011;4746;35.664;139.738;2022-08-03T14:20:06;11.63;;;10.45;;
9413;SDS011;4746;35.664;139.738;2022-08-03T14:22:37;11.38;;;10.48;;
9413;SDS011;4746;35.664;139.738;2022-08-03T14:25:04;12.23;;;11.30;;
9413;SDS011;4746;35.664;139.738;2022-08-03T14:27:33;12.07;;;10.90;;
9413;SDS011;4746;35.664;139.738;2022-08-03T14:30:02;11.55;;;10.45;;
9413;SDS011;4746;35.664;139.738;2022-08-03T14:32:30;11.35;;;10.25;;
9413;SDS011;4746;35.664;139.738;2022-08-03T14:34:57;11.25;;;10.25;;
9413;SDS011;4746;35.664;139.738;2022-08-03T14:37:25;11.38;;;10.40;;
9413;SDS011;4746;35.664;139.738;2022-08-03T14:39:53;10.77;;;9.85;;
9413;SDS011;4746;35.664;139.738;2022-08-03T14:42:20;12.30;;;11.10;;
9413;SDS011;4746;35.664;139.738;2022-08-03T14:44:48;11.45;;;10.30;;
9413;SDS011;4746;35.664;139.738;2022-08-03T14:47:15;11.57;;;10.38;;
9413;SDS011;4746;35.664;139.738;2022-08-03T14:49:43;13.02;;;11.40;;
9413;SDS011;4746;35.664;139.738;2022-08-03T14:52:11;11.70;;;10.63;;
9413;SDS011;4746;35.664;139.738;2022-08-03T14:54:38;12.23;;;11.27;;
9413;SDS011;4746;35.664;139.738;2022-08-03T14:57:06;11.93;;;10.75;;
9413;SDS011;4746;35.664;139.738;2022-08-03T14:59:33;13.73;;;12.52;;
9413;SDS011;4746;35.664;139.738;2022-08-03T15:02:01;13.25;;;12.05;;
9413;SDS011;4746;35.664;139.738;2022-08-03T15:04:28;13.20;;;11.93;;
9413;SDS011;4746;35.664;139.738;2022-08-03T15:06:56;12.82;;;11.63;;
9413;SDS011;4746;35.664;139.738;2022-08-03T15:09:24;12.25;;;11.15;;
9413;SDS011;4746;35.664;139.738;2022-08-03T15:11:51;14.45;;;12.52;;
9413;SDS011;4746;35.664;139.738;2022-08-03T15:14:19;14.80;;;12.27;;
9413;SDS011;4746;35.664;139.738;2022-08-03T15:16:46;12.80;;;11.70;;
9413;SDS011;4746;35.664;139.738;2022-08-03T15:19:14;16.23;;;12.82;;
9413;SDS011;4746;35.664;139.738;2022-08-03T15:21:42;14.10;;;12.80;;